Time;durP1;ratioP1;P1;durP2;ratioP2;P2;SDS_P1;SDS_P2;PMS_P1;PMS_P2;Temp;Humidity;BMP_temperature;BMP_pressure;BME280_temperature;BME280_humidity;BME280_pressure;Samples;Min_cycle;Max_cycle;Signal;HPM_P1;HPM_P2
2023/01/24 00:02:16;;;;;;;45.80;21.60;;;;;;;3.60;100.00;100733.97;5025025;28;20405;-70
2023/01/24 00:04:42;;;;;;;44.10;20.48;;;;;;;3.66;100.00;100732.09;5030996;28;20503;-69
2023/01/24 00:07:07;;;;;;;45.88;22.55;;;;;;;3.65;100.00;100722.97;5031107;28;20083;-70
2023/01/24 00:09:33;;;;;;;51.00;23.45;;;;;;;3.69;100.00;100725.22;5018253;28;20025;-70
2023/01/24 00:11:58;;;;;;;50.70;22.33;;;;;;;3.72;100.00;100719.16;5019113;28;20064;-70
2023/01/24 00:14:24;;;;;;;44.97;21.58;;;;;;;3.73;100.00;100721.66;5020091;28;20465;-70
2023/01/24 00:16:49;;;;;;;51.08;22.75;;;;;;;3.74;100.00;100717.81;5031138;28;20041;-70
2023/01/24 00:19:15;;;;;;;53.75;24.85;;;;;;;3.65;100.00;100720.19;5031276;28;20087;-70
2023/01/24 00:21:40;;;;;;;49.20;21.85;;;;;;;3.65;100.00;100716.59;5022712;28;20029;-70
2023/01/24 00:24:06;;;;;;;45.92;22.95;;;;;;;3.65;100.00;100730.44;5027513;28;20040;-70
2023/01/24 00:26:31;;;;;;;58.67;23.23;;;;;;;3.60;100.00;100736.75;5034449;28;20032;-70
2023/01/24 00:28:58;;;;;;;61.80;24.83;;;;;;;3.65;100.00;100731.25;5034571;28;20514;-69
2023/01/24 00:31:24;;;;;;;54.60;26.17;;;;;;;3.64;100.00;100739.84;5026464;28;20032;-69
2023/01/24 00:33:50;;;;;;;63.67;27.08;;;;;;;3.67;100.00;100739.31;5034237;28;20018;-70
2023/01/24 00:36:15;;;;;;;54.28;26.05;;;;;;;3.61;100.00;100740.31;5034275;28;20057;-70
2023/01/24 00:38:41;;;;;;;59.92;26.95;;;;;;;3.63;100.00;100743.69;5032261;28;20049;-69
2023/01/24 00:41:07;;;;;;;61.03;28.60;;;;;;;3.54;100.00;100742.47;5024313;28;20033;-70
2023/01/24 00:43:33;;;;;;;50.30;26.67;;;;;;;3.63;100.00;100741.75;5013384;28;20022;-69
2023/01/24 00:45:59;;;;;;;57.92;25.05;;;;;;;3.61;100.00;100740.31;5018129;28;20025;-70
2023/01/24 00:48:24;;;;;;;57.20;25.42;;;;;;;3.54;100.00;100750.75;5034546;28;20060;-69
2023/01/24 00:50:50;;;;;;;52.58;25.35;;;;;;;3.67;100.00;100755.91;5017859;28;20034;-70
2023/01/24 00:53:16;;;;;;;61.15;25.95;;;;;;;3.52;100.00;100742.72;5014139;28;20088;-70
2023/01/24 00:55:43;;;;;;;70.25;29.17;;;;;;;3.53;100.00;100746.31;5014401;28;20018;-69
2023/01/24 00:58:09;;;;;;;64.65;29.42;;;;;;;3.43;100.00;100728.50;5023696;28;20502;-69
2023/01/24 01:00:36;;;;;;;55.25;26.33;;;;;;;3.46;100.00;100739.03;5033696;28;20366;-70
2023/01/24 01:03:05;;;;;;;60.00;25.13;;;;;;;3.58;100.00;100746.38;5032644;28;20117;-69
2023/01/24 01:05:31;;;;;;;54.03;26.08;;;;;;;3.51;100.00;100741.88;5032558;28;20447;-69
2023/01/24 01:07:56;;;;;;;53.75;26.45;;;;;;;3.45;100.00;100742.09;5033669;28;20036;-69
2023/01/24 01:10:22;;;;;;;66.55;26.98;;;;;;;3.43;100.00;100745.09;5032776;28;20052;-69
2023/01/24 01:12:47;;;;;;;59.00;27.77;;;;;;;3.45;100.00;100750.38;5030873;28;20099;-69
2023/01/24 01:15:13;;;;;;;57.45;24.70;;;;;;;3.51;100.00;100747.41;5017000;28;20567;-70
2023/01/24 01:17:38;;;;;;;60.80;26.88;;;;;;;3.54;100.00;100750.75;5016702;28;20042;-70
2023/01/24 01:20:04;;;;;;;60.10;26.63;;;;;;;3.43;100.00;100738.72;5028685;28;20021;-70
2023/01/24 01:22:30;;;;;;;65.60;29.17;;;;;;;3.54;100.00;100748.00;5015183;28;20056;-70
2023/01/24 01:24:55;;;;;;;52.63;24.42;;;;;;;3.39;100.00;100741.19;5013844;28;20045;-70
2023/01/24 01:27:21;;;;;;;59.55;27.10;;;;;;;3.44;100.00;100745.91;5013633;28;20430;-70
2023/01/24 01:29:46;;;;;;;55.65;27.10;;;;;;;3.49;100.00;100743.22;5021499;28;20372;-70
2023/01/24 01:32:12;;;;;;;69.22;28.58;;;;;;;3.43;100.00;100734.03;5032694;28;20044;-70
2023/01/24 01:34:37;;;;;;;60.67;27.38;;;;;;;3.40;100.00;100742.84;5033304;28;20476;-70
2023/01/24 01:37:02;;;;;;;58.75;25.83;;;;;;;3.26;100.00;100739.59;5031977;28;20099;-70
2023/01/24 01:39:28;;;;;;;55.88;27.77;;;;;;;3.35;100.00;100738.06;5028376;28;20422;-70
2023/01/24 01:41:53;;;;;;;54.03;25.20;;;;;;;3.34;100.00;100743.84;5013378;28;20366;-70
2023/01/24 01:44:49;;;;;;;58.85;26.02;;;;;;;3.34;100.00;100743.84;5021466;28;20100;-70
2023/01/24 01:47:30;;;;;;;50.40;23.55;;;;;;;3.29;100.00;100735.50;5031790;28;20038;-70
2023/01/24 01:49:58;;;;;;;59.47;25.83;;;;;;;3.26;100.00;100733.22;5030402;28;20048;-70
2023/01/24 01:52:26;;;;;;;88.20;24.30;;;;;;;3.25;100.00;100739.84;5032856;28;20032;-70
2023/01/24 01:54:57;;;;;;;58.25;26.80;;;;;;;3.18;100.00;100727.06;5032111;28;20103;-70
2023/01/24 01:57:28;;;;;;;56.35;27.33;;;;;;;3.19;100.00;100742.56;5032836;28;20033;-70
2023/01/24 02:00:04;;;;;;;49.35;22.67;;;;;;;3.15;100.00;100737.78;5020886;28;20032;-70
2023/01/24 02:02:31;;;;;;;60.42;25.35;;;;;;;3.17;100.00;100741.97;5012764;28;20034;-70
2023/01/24 02:05:01;;;;;;;63.90;28.55;;;;;;;3.20;100.00;100744.22;5012621;28;20068;-70
2023/01/24 02:07:56;;;;;;;59.63;28.40;;;;;;;3.21;100.00;100748.66;5012996;28;20040;-70
2023/01/24 02:10:24;;;;;;;53.28;23.80;;;;;;;3.30;100.00;100756.53;5029294;28;20049;-70
2023/01/24 02:12:53;;;;;;;60.10;26.35;;;;;;;3.35;100.00;100742.75;5032506;28;20026;-70
2023/01/24 02:18:08;;;;;;;63.35;28.50;;;;;;;3.23;100.00;100752.00;5030945;28;20451;-70
2023/01/24 02:20:45;;;;;;;54.05;24.67;;;;;;;3.13;100.00;100757.38;5012789;28;20029;-70
2023/01/24 02:23:36;;;;;;;51.80;24.40;;;;;;;3.12;100.00;100754.88;5011369;28;20026;-70
2023/01/24 02:26:14;;;;;;;55.92;26.60;;;;;;;3.06;100.00;100763.09;5011309;28;20029;-70
2023/01/24 02:28:46;;;;;;;57.53;24.65;;;;;;;3.11;100.00;100756.78;5015899;28;20108;-70
2023/01/24 02:31:11;;;;;;;62.38;25.38;;;;;;;3.07;100.00;100761.16;5032172;28;20032;-70
2023/01/24 02:33:37;;;;;;;69.82;27.02;;;;;;;3.08;100.00;100754.53;5032155;28;20025;-70
2023/01/24 02:36:19;;;;;;;62.83;24.70;;;;;;;3.15;100.00;100763.50;5030865;28;20057;-70
2023/01/24 02:38:50;;;;;;;45.72;24.38;;;;;;;3.12;100.00;100760.41;5032051;28;20036;-70
2023/01/24 02:41:20;;;;;;;59.70;26.58;;;;;;;3.13;100.00;100760.13;5031749;28;20059;-70
2023/01/24 02:43:49;;;;;;;57.70;26.23;;;;;;;3.05;100.00;100760.59;5028062;28;20054;-70
2023/01/24 02:46:15;;;;;;;46.72;22.45;;;;;;;2.99;100.00;100765.19;5030795;28;20403;-70
2023/01/24 02:48:40;;;;;;;61.92;25.08;;;;;;;3.01;100.00;100764.94;5030427;28;20021;-70
2023/01/24 02:53:50;;;;;;;57.05;26.23;;;;;;;2.93;100.00;100758.75;5032095;28;20175;-70
2023/01/24 02:58:59;;;;;;;58.83;25.50;;;;;;;2.94;100.00;100743.84;5029554;28;20032;-70
2023/01/24 03:01:25;;;;;;;63.95;26.25;;;;;;;2.87;100.00;100751.44;5031738;28;20022;-70
2023/01/24 03:03:52;;;;;;;56.22;23.98;;;;;;;2.91;100.00;100749.88;5030445;28;20021;-70
2023/01/24 03:06:18;;;;;;;44.72;21.20;;;;;;;2.85;100.00;100759.16;5031701;28;20113;-70
2023/01/24 03:08:44;;;;;;;51.20;24.10;;;;;;;2.85;100.00;100753.63;5031530;28;20025;-70
2023/01/24 03:11:11;;;;;;;53.20;24.42;;;;;;;2.84;100.00;100754.72;5031799;28;20029;-70
2023/01/24 03:35:31;;;;;;;59.97;25.05;;;;;;;2.85;100.00;100750.88;5031379;28;20033;-70
2023/01/24 03:40:40;;;;;;;49.03;22.90;;;;;;;2.87;100.00;100756.16;5011669;28;20029;-70
2023/01/24 03:43:06;;;;;;;55.38;25.05;;;;;;;2.76;100.00;100753.22;5011687;28;20381;-70
2023/01/24 03:45:35;;;;;;;55.05;23.13;;;;;;;2.83;100.00;100750.28;5010573;28;20022;-70
2023/01/24 03:48:09;;;;;;;51.65;25.33;;;;;;;2.72;100.00;100749.31;5013754;28;20100;-70
2023/01/24 03:53:23;;;;;;;50.28;25.42;;;;;;;2.78;100.00;100748.28;5018867;28;20199;-70
2023/01/24 03:56:01;;;;;;;52.55;25.98;;;;;;;2.72;100.00;100751.22;5034717;28;20562;-70
2023/01/24 03:58:28;;;;;;;50.25;21.88;;;;;;;2.76;100.00;100749.63;5033569;28;20025;-70
2023/01/24 04:00:54;;;;;;;50.53;24.27;;;;;;;2.72;100.00;100741.00;5035000;28;20122;-70
2023/01/24 04:03:20;;;;;;;44.92;22.98;;;;;;;2.72;100.00;100751.22;5035070;28;20028;-70
2023/01/24 04:05:47;;;;;;;53.13;25.65;;;;;;;2.72;100.00;100742.94;5032720;28;20025;-70
2023/01/24 04:08:14;;;;;;;42.50;19.90;;;;;;;2.70;100.00;100740.41;5034475;28;20037;-70
2023/01/24 04:10:39;;;;;;;60.22;25.30;;;;;;;2.67;100.00;100747.28;5033788;28;20029;-70
2023/01/24 04:13:04;;;;;;;41.80;21.45;;;;;;;2.61;100.00;100742.75;5034656;28;20370;-70
2023/01/24 04:15:32;;;;;;;52.15;25.77;;;;;;;2.72;100.00;100760.34;5034546;28;20033;-70
2023/01/24 04:18:00;;;;;;;51.30;23.90;;;;;;;2.72;100.00;100757.59;5028569;28;20045;-70
2023/01/24 04:20:28;;;;;;;48.58;24.08;;;;;;;2.60;100.00;100748.53;5015140;28;20492;-70
2023/01/24 04:22:54;;;;;;;51.25;24.25;;;;;;;2.74;100.00;100754.56;5014532;28;20389;-70
2023/01/24 04:25:20;;;;;;;48.70;22.73;;;;;;;2.64;100.00;100744.19;5014914;28;20040;-70
2023/01/24 04:27:46;;;;;;;53.25;24.02;;;;;;;2.61;100.00;100753.81;5019878;28;20040;-70
2023/01/24 04:30:15;;;;;;;41.25;22.33;;;;;;;2.59;100.00;100755.13;5034655;28;20383;-70
2023/01/24 04:32:40;;;;;;;50.83;24.48;;;;;;;2.57;100.00;100746.25;5033830;28;20117;-70
2023/01/24 04:35:06;;;;;;;48.20;21.60;;;;;;;2.61;100.00;100751.03;5034275;28;20555;-70
2023/01/24 04:37:32;;;;;;;49.42;23.80;;;;;;;2.51;100.00;100746.19;5032977;28;20091;-70
2023/01/24 04:39:58;;;;;;;51.67;23.55;;;;;;;2.57;100.00;100749.88;5034678;28;20086;-70
2023/01/24 04:42:24;;;;;;;47.60;24.23;;;;;;;2.56;100.00;100756.50;5032708;28;20460;-70
2023/01/24 04:44:49;;;;;;;54.95;24.20;;;;;;;2.48;100.00;100756.91;5032685;28;20033;-70
2023/01/24 04:47:14;;;;;;;55.17;24.35;;;;;;;2.50;100.00;100749.19;5028906;28;20127;-70
2023/01/24 04:49:43;;;;;;;47.97;23.42;;;;;;;2.42;100.00;100746.84;5032361;28;20025;-70
2023/01/24 04:52:11;;;;;;;55.75;26.45;;;;;;;2.52;100.00;100750.63;5034329;28;20021;-70
2023/01/24 04:54:38;;;;;;;49.78;24.15;;;;;;;2.45;100.00;100744.41;5023596;28;20029;-70
2023/01/24 04:57:03;;;;;;;51.97;24.50;;;;;;;2.38;100.00;100736.28;5012950;28;20040;-70
2023/01/24 04:59:29;;;;;;;47.83;23.80;;;;;;;2.52;100.00;100747.00;5013033;28;20030;-70
2023/01/24 05:01:54;;;;;;;54.40;24.25;;;;;;;2.42;100.00;100753.19;5023293;28;20021;-70
2023/01/24 05:04:20;;;;;;;59.92;27.65;;;;;;;2.48;100.00;100745.84;5022847;28;20013;-70
2023/01/24 05:06:45;;;;;;;51.30;25.98;;;;;;;2.53;100.00;100748.69;5033929;28;20026;-70
2023/01/24 05:09:11;;;;;;;56.42;26.90;;;;;;;2.40;100.00;100752.63;5033907;28;20025;-70
2023/01/24 05:11:36;;;;;;;51.60;25.45;;;;;;;2.37;100.00;100753.13;5032549;28;20029;-70
2023/01/24 05:14:02;;;;;;;51.85;27.23;;;;;;;2.43;100.00;100759.56;5033113;28;20472;-70
2023/01/24 05:16:28;;;;;;;58.75;26.85;;;;;;;2.37;100.00;100767.75;5028898;28;20060;-70
2023/01/24 05:18:54;;;;;;;51.05;25.27;;;;;;;2.32;100.00;100764.06;5033716;28;20037;-70
2023/01/24 05:21:19;;;;;;;56.47;26.63;;;;;;;2.31;100.00;100771.53;5033572;28;20033;-70
2023/01/24 05:23:50;;;;;;;41.30;20.90;;;;;;;2.24;100.00;100765.31;5032803;28;20029;-70
2023/01/24 05:26:16;;;;;;;51.05;26.58;;;;;;;2.22;100.00;100775.75;5031673;28;20462;-70
2023/01/24 05:28:41;;;;;;;39.85;21.77;;;;;;;2.19;100.00;100776.25;5022590;28;20030;-70
2023/01/24 05:31:08;;;;;;;48.65;24.05;;;;;;;2.18;100.00;100775.41;5013813;28;20037;-70
2023/01/24 05:33:34;;;;;;;40.97;22.90;;;;;;;2.26;100.00;100787.97;5031164;28;20033;-70
2023/01/24 05:36:08;;;;;;;44.58;22.88;;;;;;;2.30;100.00;100777.28;5033411;28;20035;-70
2023/01/24 05:38:34;;;;;;;41.72;22.08;;;;;;;2.16;100.00;100783.09;5033473;28;20037;-70
2023/01/24 05:41:01;;;;;;;41.13;22.45;;;;;;;2.24;100.00;100791.00;5016505;28;20065;-70
2023/01/24 05:43:28;;;;;;;37.80;20.20;;;;;;;2.15;100.00;100798.00;5013570;28;20028;-70
2023/01/24 05:46:02;;;;;;;49.53;20.67;;;;;;;2.05;100.00;100784.84;5016986;28;20025;-70
2023/01/24 05:48:28;;;;;;;45.83;22.88;;;;;;;2.14;100.00;100787.19;5031483;28;20029;-70
2023/01/24 05:51:02;;;;;;;45.30;22.70;;;;;;;2.16;100.00;100799.66;5032046;28;20029;-70
2023/01/24 05:53:29;;;;;;;46.85;23.05;;;;;;;2.20;100.00;100805.53;5032618;28;20029;-70
2023/01/24 05:56:00;;;;;;;48.83;24.67;;;;;;;2.24;100.00;100812.25;5017447;28;20026;-70
2023/01/24 05:58:28;;;;;;;48.83;23.85;;;;;;;2.20;100.00;100811.88;5032196;28;20029;-70
2023/01/24 06:00:54;;;;;;;45.75;23.73;;;;;;;2.22;100.00;100819.94;5031256;28;20029;-70
2023/01/24 06:03:20;;;;;;;40.70;23.92;;;;;;;2.18;100.00;100827.88;5019553;28;20104;-70
2023/01/24 06:05:48;;;;;;;42.97;23.27;;;;;;;2.22;100.00;100825.47;5024063;28;20563;-70
2023/01/24 06:08:14;;;;;;;38.38;19.33;;;;;;;2.12;100.00;100820.56;5013135;28;20476;-70
2023/01/24 06:10:39;;;;;;;47.50;21.13;;;;;;;2.13;100.00;100813.13;5014322;28;20029;-70
2023/01/24 06:13:05;;;;;;;43.95;22.92;;;;;;;2.07;100.00;100828.75;5013088;28;20025;-70
2023/01/24 06:15:30;;;;;;;39.95;20.85;;;;;;;2.09;100.00;100810.84;5027594;28;20404;-70
2023/01/24 06:17:56;;;;;;;44.20;21.95;;;;;;;2.03;100.00;100811.81;5018502;28;20045;-70
2023/01/24 06:20:21;;;;;;;40.20;20.73;;;;;;;2.10;100.00;100812.53;5026800;28;20030;-70
2023/01/24 06:22:56;;;;;;;37.17;19.60;;;;;;;2.03;100.00;100824.81;5032462;28;20545;-70
2023/01/24 06:25:24;;;;;;;36.15;19.50;;;;;;;2.09;100.00;100810.00;5026329;28;20029;-70
2023/01/24 06:27:50;;;;;;;40.80;22.90;;;;;;;2.09;100.00;100821.91;5019940;28;20487;-70
2023/01/24 06:30:17;;;;;;;40.63;20.50;;;;;;;2.15;100.00;100827.50;5031505;28;20108;-70
2023/01/24 06:32:54;;;;;;;46.88;23.65;;;;;;;2.07;100.00;100826.84;5030409;28;20091;-71
2023/01/24 06:35:31;;;;;;;37.92;21.20;;;;;;;2.07;100.00;100832.34;5021500;28;20022;-71
2023/01/24 06:37:58;;;;;;;47.00;20.52;;;;;;;2.09;100.00;100832.94;5027453;28;20095;-72
2023/01/24 06:40:24;;;;;;;37.95;20.13;;;;;;;2.01;100.00;100830.56;5020328;28;20041;-70
2023/01/24 06:42:51;;;;;;;39.97;20.48;;;;;;;2.10;100.00;100829.09;5031547;28;20072;-71
2023/01/24 06:45:17;;;;;;;38.55;21.70;;;;;;;2.05;100.00;100837.28;5028735;28;20065;-69
2023/01/24 06:47:43;;;;;;;39.90;21.27;;;;;;;2.10;100.00;100840.13;5023350;28;20049;-72
2023/01/24 06:50:22;;;;;;;38.80;19.58;;;;;;;2.00;100.00;100831.63;5023710;28;20025;-69
2023/01/24 06:52:48;;;;;;;32.58;17.77;;;;;;;1.95;100.00;100839.81;5024942;28;20049;-69
2023/01/24 06:55:14;;;;;;;31.50;16.85;;;;;;;1.94;100.00;100847.25;5019573;28;20660;-70
2023/01/24 06:57:40;;;;;;;33.08;17.90;;;;;;;1.98;100.00;100844.00;5031798;28;20022;-72
2023/01/24 07:00:07;;;;;;;32.65;14.32;;;;;;;2.00;100.00;100855.66;5018988;28;20061;-69
2023/01/24 07:02:32;;;;;;;33.92;16.02;;;;;;;1.98;100.00;100850.38;5027081;28;20029;-70
2023/01/24 07:04:58;;;;;;;34.60;17.00;;;;;;;2.04;100.00;100859.59;5029355;28;20032;-70
2023/01/24 07:07:23;;;;;;;27.55;17.70;;;;;;;2.04;100.00;100863.19;5031108;28;20022;-69
2023/01/24 07:09:48;;;;;;;24.08;16.17;;;;;;;2.10;100.00;100872.41;5019733;28;20041;-70
2023/01/24 07:12:14;;;;;;;27.88;18.27;;;;;;;2.16;100.00;100873.34;5019964;28;20026;-73
2023/01/24 07:14:39;;;;;;;33.30;16.48;;;;;;;2.10;100.00;100862.22;5029429;28;20029;-71
2023/01/24 07:17:05;;;;;;;29.60;15.95;;;;;;;2.12;100.00;100867.50;5023750;28;20076;-70
2023/01/24 07:19:31;;;;;;;33.33;15.98;;;;;;;2.12;100.00;100884.06;5021716;28;20108;-72
2023/01/24 07:21:57;;;;;;;29.58;15.23;;;;;;;1.93;100.00;100866.81;5028841;28;20577;-71
2023/01/24 07:24:26;;;;;;;25.67;15.50;;;;;;;2.07;100.00;100875.66;5026848;28;20029;-72
2023/01/24 07:26:53;;;;;;;23.10;13.43;;;;;;;2.00;100.00;100884.09;5027876;28;20032;-70
2023/01/24 07:29:19;;;;;;;26.13;15.45;;;;;;;1.96;100.00;100883.72;5025393;28;20033;-69
2023/01/24 07:31:44;;;;;;;23.05;14.80;;;;;;;2.04;100.00;100881.69;5022745;28;20029;-70
2023/01/24 07:34:10;;;;;;;27.83;15.40;;;;;;;2.12;100.00;100878.56;5030404;28;20029;-68
2023/01/24 07:36:36;;;;;;;27.08;15.32;;;;;;;2.01;100.00;100874.72;5028663;28;20083;-69
2023/01/24 07:39:01;;;;;;;28.42;16.00;;;;;;;2.04;100.00;100884.44;5023914;28;20025;-70
2023/01/24 07:41:27;;;;;;;22.10;14.75;;;;;;;2.12;100.00;100884.06;5022354;28;20033;-73
2023/01/24 07:43:53;;;;;;;27.85;16.45;;;;;;;2.10;100.00;100887.06;5023427;28;20029;-72
2023/01/24 07:46:19;;;;;;;29.27;15.98;;;;;;;1.99;100.00;100893.44;5011482;28;20021;-72
2023/01/24 07:48:45;;;;;;;29.10;16.65;;;;;;;2.06;100.00;100883.13;5017810;28;20096;-70
2023/01/24 07:51:10;;;;;;;22.02;13.60;;;;;;;2.18;100.00;100893.31;5018967;28;20093;-71
2023/01/24 07:53:36;;;;;;;22.90;12.70;;;;;;;2.12;100.00;100891.50;5031209;28;20523;-71
2023/01/24 07:56:05;;;;;;;33.70;13.95;;;;;;;2.09;100.00;100888.16;5033999;28;20030;-76
2023/01/24 07:58:31;;;;;;;24.00;14.73;;;;;;;2.09;100.00;100901.97;5033584;28;20465;-73
2023/01/24 08:00:56;;;;;;;24.88;11.63;;;;;;;1.96;100.00;100896.69;5032893;28;20496;-70
2023/01/24 08:03:22;;;;;;;28.83;12.93;;;;;;;2.01;100.00;100896.81;5026625;28;20053;-70
2023/01/24 08:05:47;;;;;;;29.33;14.73;;;;;;;2.00;100.00;100894.31;5011614;28;20471;-70
2023/01/24 08:08:13;;;;;;;26.80;15.38;;;;;;;2.12;100.00;100900.63;5025670;28;20029;-71
2023/01/24 08:31:19;;;;;;;25.67;14.70;;;;;;;2.26;99.32;100909.47;5146361;27;20961;-72
2023/01/24 08:33:44;;;;;;;22.45;13.32;;;;;;;2.33;98.76;100918.47;5143332;27;20113;-72
2023/01/24 08:36:10;;;;;;;24.75;13.57;;;;;;;2.17;99.72;100895.22;5146767;27;20031;-72
2023/01/24 08:38:35;;;;;;;22.50;14.02;;;;;;;2.20;100.00;100913.22;5147718;27;20075;-74
2023/01/24 08:41:05;;;;;;;30.60;14.85;;;;;;;2.28;100.00;100915.56;5130296;27;20038;-74
2023/01/24 08:43:31;;;;;;;24.60;14.63;;;;;;;2.22;99.99;100906.34;5127005;28;20066;-74
2023/01/24 08:45:57;;;;;;;23.80;14.35;;;;;;;2.17;99.67;100919.22;5131469;27;20412;-73
2023/01/24 08:48:22;;;;;;;23.35;13.40;;;;;;;2.19;99.51;100914.31;5127137;27;20023;-73
2023/01/24 08:50:47;;;;;;;25.73;14.23;;;;;;;2.19;99.01;100919.81;5127151;27;20016;-72
2023/01/24 08:53:14;;;;;;;19.80;11.32;;;;;;;2.21;98.41;100925.94;5126185;27;20024;-73
2023/01/24 08:55:40;;;;;;;19.40;11.25;;;;;;;2.12;97.36;100919.97;5126135;27;20035;-74
2023/01/24 08:58:05;;;;;;;21.25;11.23;;;;;;;2.01;98.85;100921.63;5122074;27;20023;-72
2023/01/24 09:00:32;;;;;;;24.85;13.82;;;;;;;2.08;98.88;100927.03;5123505;28;20020;-74
2023/01/24 09:03:00;;;;;;;21.55;11.73;;;;;;;2.08;99.44;100929.78;5121341;28;20512;-71
2023/01/24 09:05:26;;;;;;;24.52;14.35;;;;;;;2.15;99.88;100929.66;5124697;28;20031;-72
2023/01/24 09:07:52;;;;;;;19.10;9.93;;;;;;;1.99;100.00;100922.97;5125888;27;20401;-71
2023/01/24 09:10:17;;;;;;;21.15;10.77;;;;;;;1.97;100.00;100923.22;5125858;27;20030;-72
2023/01/24 09:12:42;;;;;;;25.40;11.85;;;;;;;1.96;100.00;100921.53;5125006;27;20027;-72
2023/01/24 09:15:08;;;;;;;26.00;13.82;;;;;;;1.91;100.00;100913.13;5124697;28;20419;-72
2023/01/24 09:17:34;;;;;;;21.25;12.98;;;;;;;1.92;100.00;100917.56;5124642;28;20038;-72
2023/01/24 09:20:00;;;;;;;21.55;12.55;;;;;;;1.95;100.00;100912.41;5125736;28;20098;-70
2023/01/24 09:22:27;;;;;;;22.63;13.85;;;;;;;2.04;100.00;100910.09;5120861;28;20035;-71
2023/01/24 09:24:52;;;;;;;26.63;13.85;;;;;;;2.06;100.00;100913.50;5122261;28;20520;-72
2023/01/24 09:27:18;;;;;;;22.17;13.48;;;;;;;2.12;100.00;100919.09;5121436;28;20024;-72
2023/01/24 09:29:43;;;;;;;26.60;14.65;;;;;;;2.17;100.00;100916.44;5126506;28;20140;-71
2023/01/24 09:32:09;;;;;;;23.80;13.80;;;;;;;2.22;100.00;100908.28;5114803;27;20039;-73
2023/01/24 09:34:34;;;;;;;21.27;13.55;;;;;;;2.22;100.00;100908.28;5113511;28;20020;-73
2023/01/24 09:37:00;;;;;;;22.48;12.98;;;;;;;2.13;100.00;100915.25;5114020;28;20514;-73
2023/01/24 09:39:25;;;;;;;23.73;12.68;;;;;;;2.26;100.00;100915.00;5103412;28;20020;-73
2023/01/24 09:42:11;;;;;;;23.27;13.25;;;;;;;2.19;100.00;100897.75;5110973;28;20039;-73
2023/01/24 09:44:44;;;;;;;24.02;11.38;;;;;;;2.23;100.00;100916.34;5108968;28;20455;-74
2023/01/24 09:47:42;;;;;;;16.77;10.60;;;;;;;2.17;100.00;100924.72;5107042;28;20031;-70
2023/01/24 09:50:47;;;;;;;20.98;11.13;;;;;;;2.20;100.00;100914.03;5095826;28;20100;-74
2023/01/24 09:53:25;;;;;;;20.58;11.32;;;;;;;2.19;100.00;100914.31;5107150;28;20493;-71
2023/01/24 09:55:52;;;;;;;20.83;13.20;;;;;;;2.23;100.00;100910.81;5109116;28;20027;-71
2023/01/24 09:58:31;;;;;;;18.65;10.85;;;;;;;2.22;100.00;100909.09;5089909;28;20032;-71
2023/01/24 10:01:14;;;;;;;27.77;14.48;;;;;;;2.32;100.00;100911.28;5089169;28;20036;-70
2023/01/24 10:03:42;;;;;;;21.15;12.23;;;;;;;2.33;100.00;100910.19;5101594;28;20043;-71
2023/01/24 10:06:19;;;;;;;23.48;11.65;;;;;;;2.29;100.00;100908.97;5109511;28;20024;-72
2023/01/24 10:08:48;;;;;;;17.85;11.18;;;;;;;2.19;100.00;100908.78;5112579;28;20032;-71
2023/01/24 10:11:42;;;;;;;21.55;11.95;;;;;;;2.29;100.00;100903.44;5111474;28;20062;-72
2023/01/24 10:14:31;;;;;;;25.02;15.07;;;;;;;2.28;100.00;100907.28;5100345;28;20848;-72
2023/01/24 10:17:07;;;;;;;31.52;15.85;;;;;;;2.37;100.00;100903.06;5104631;28;20032;-72
2023/01/24 10:19:42;;;;;;;24.15;11.65;;;;;;;2.35;100.00;100896.09;5107955;28;20548;-72
2023/01/24 10:22:07;;;;;;;21.70;12.48;;;;;;;2.44;100.00;100896.59;5101031;28;20533;-72
2023/01/24 10:24:37;;;;;;;29.05;15.30;;;;;;;2.50;100.00;100884.53;5107965;28;20079;-72
2023/01/24 10:27:34;;;;;;;21.87;13.20;;;;;;;2.51;100.00;100883.44;5108084;28;20038;-71
2023/01/24 10:30:12;;;;;;;20.50;12.63;;;;;;;2.53;99.56;100886.78;5093546;28;20457;-72
2023/01/24 10:32:43;;;;;;;19.23;11.85;;;;;;;2.64;100.00;100860.22;5109076;28;20045;-71
2023/01/24 10:35:20;;;;;;;23.20;13.18;;;;;;;2.66;98.48;100867.19;5108161;28;20039;-72
2023/01/24 10:37:55;;;;;;;18.60;10.88;;;;;;;2.57;97.51;100860.38;5100379;28;20315;-73
2023/01/24 10:40:24;;;;;;;25.00;13.18;;;;;;;2.65;97.09;100853.59;5108310;28;20054;-70
2023/01/24 10:42:50;;;;;;;21.13;11.60;;;;;;;2.66;96.71;100858.03;5105785;28;20059;-71
2023/01/24 10:45:40;;;;;;;22.42;12.35;;;;;;;2.71;96.72;100857.31;5107678;28;20430;-71
2023/01/24 10:48:42;;;;;;;27.13;10.85;;;;;;;2.75;97.85;100858.47;5095375;28;20043;-71
2023/01/24 10:51:16;;;;;;;19.73;11.45;;;;;;;2.88;97.69;100855.38;5098979;28;20051;-70
2023/01/24 10:53:43;;;;;;;26.15;14.25;;;;;;;2.83;97.96;100843.41;5099215;28;20027;-69
2023/01/24 10:56:09;;;;;;;26.40;12.77;;;;;;;2.91;95.88;100857.69;5108573;28;20080;-71
2023/01/24 10:58:37;;;;;;;18.83;12.05;;;;;;;2.94;95.49;100864.63;5106152;28;20020;-71
2023/01/24 11:01:20;;;;;;;18.70;10.65;;;;;;;2.86;94.38;100865.03;5104212;27;20028;-71
2023/01/24 11:03:47;;;;;;;27.60;13.70;;;;;;;2.87;94.45;100856.47;5108104;27;20038;-71
2023/01/24 11:06:28;;;;;;;29.77;15.18;;;;;;;2.80;95.24;100855.81;5107683;28;20035;-71
2023/01/24 11:08:55;;;;;;;;;;;;;;;2.91;94.03;100849.38;5107354;28;20035;-71
2023/01/24 11:11:28;;;;;;;26.77;13.60;;;;;;;2.91;93.37;100835.56;5108026;28;20240;-71
2023/01/24 11:14:01;;;;;;;29.13;15.07;;;;;;;3.00;94.21;100835.97;5108051;28;20031;-71
2023/01/24 11:16:33;;;;;;;14.40;9.35;;;;;;;2.81;92.48;100832.63;5108396;28;20043;-71
2023/01/24 11:19:01;;;;;;;16.15;10.55;;;;;;;2.77;93.79;100842.47;5110522;28;20028;-71
2023/01/24 11:21:28;;;;;;;24.35;13.48;;;;;;;2.85;94.21;100839.31;5109546;28;20031;-71
2023/01/24 11:24:06;;;;;;;24.00;14.45;;;;;;;2.84;93.95;100837.66;5109228;28;20118;-71
2023/01/24 11:26:36;;;;;;;13.55;9.15;;;;;;;2.84;93.74;100836.81;5106914;28;20035;-71
2023/01/24 11:29:29;;;;;;;17.05;9.88;;;;;;;2.87;93.00;100837.13;5102483;28;20026;-71
2023/01/24 11:31:56;;;;;;;21.67;11.85;;;;;;;2.90;94.36;100836.66;5107521;28;20039;-71
2023/01/24 11:34:34;;;;;;;22.23;14.05;;;;;;;2.98;94.66;100829.03;5108659;28;20132;-71
2023/01/24 11:37:14;;;;;;;26.58;12.15;;;;;;;3.05;91.71;100835.22;5110740;28;20020;-71
2023/01/24 11:39:42;;;;;;;42.67;12.63;;;;;;;3.03;93.87;100832.72;5108362;28;20023;-71
2023/01/24 11:42:43;;;;;;;19.13;10.82;;;;;;;3.01;91.94;100832.13;5108114;28;20441;-71
2023/01/24 11:45:25;;;;;;;14.75;9.52;;;;;;;2.91;92.27;100835.56;5086093;28;20035;-71
2023/01/24 11:48:20;;;;;;;44.22;20.17;;;;;;;2.94;93.20;100831.44;5107266;27;20027;-71
2023/01/24 11:51:03;;;;;;;17.65;9.18;;;;;;;2.87;92.91;100839.06;5109166;28;20044;-71
2023/01/24 11:54:12;;;;;;;24.70;12.25;;;;;;;2.88;92.94;100824.16;5112514;27;20489;-71
2023/01/24 11:56:38;;;;;;;16.08;10.90;;;;;;;2.99;93.13;100827.94;5109197;28;20494;-71
2023/01/24 11:59:30;;;;;;;17.67;10.15;;;;;;;3.12;94.29;100824.00;5108849;28;20440;-71
2023/01/24 12:02:53;;;;;;;30.95;15.77;;;;;;;3.32;91.47;100820.72;5106525;28;20032;-71
2023/01/24 12:05:45;;;;;;;29.45;16.63;;;;;;;3.29;91.66;100824.00;5044489;28;20457;-71
2023/01/24 12:08:40;;;;;;;24.67;13.90;;;;;;;3.26;90.38;100828.09;5047329;28;20025;-71
2023/01/24 12:11:22;;;;;;;20.98;12.48;;;;;;;3.26;89.70;100824.47;5099389;27;20039;-71
2023/01/24 12:13:51;;;;;;;25.52;12.48;;;;;;;3.14;90.80;100827.34;5112035;27;20028;-71
2023/01/24 12:16:42;;;;;;;26.73;12.77;;;;;;;3.31;91.34;100830.94;5106413;28;20034;-71
2023/01/24 12:19:17;;;;;;;20.20;12.70;;;;;;;3.27;89.47;100832.53;5103363;28;20027;-71
2023/01/24 12:21:43;;;;;;;32.22;15.07;;;;;;;3.22;90.15;100829.69;5104126;28;20050;-71